sensor_id;sensor_type;location;lat;lon;timestamp;temperature;humidity
18880;DHT22;9572;52.378;13.404;2022-08-19T00:01:21;21.50;99.90
18880;DHT22;9572;52.378;13.404;2022-08-19T00:03:48;21.50;99.90
18880;DHT22;9572;52.378;13.404;2022-08-19T00:06:16;21.50;99.90
18880;DHT22;9572;52.378;13.404;2022-08-19T00:08:43;21.60;99.90
18880;DHT22;9572;52.378;13.404;2022-08-19T00:11:10;21.60;99.90
18880;DHT22;9572;52.378;13.404;2022-08-19T00:13:39;21.60;99.90
18880;DHT22;9572;52.378;13.404;2022-08-19T00:16:06;21.60;99.90
18880;DHT22;9572;52.378;13.404;2022-08-19T00:18:34;21.60;99.90
18880;DHT22;9572;52.378;13.404;2022-08-19T00:21:00;21.60;99.90
18880;DHT22;9572;52.378;13.404;2022-08-19T00:23:27;21.60;99.90
18880;DHT22;9572;52.378;13.404;2022-08-19T00:25:55;21.50;99.90
18880;DHT22;9572;52.378;13.404;2022-08-19T00:28:22;21.50;99.90
18880;DHT22;9572;52.378;13.404;2022-08-19T00:30:50;21.60;99.90
18880;DHT22;9572;52.378;13.404;2022-08-19T00:33:18;21.60;99.90
18880;DHT22;9572;52.378;13.404;2022-08-19T00:35:45;21.60;99.90
18880;DHT22;9572;52.378;13.404;2022-08-19T00:38:12;21.50;99.90
18880;DHT22;9572;52.378;13.404;2022-08-19T00:40:41;21.50;99.90
18880;DHT22;9572;52.378;13.404;2022-08-19T00:43:09;21.40;99.90
18880;DHT22;9572;52.378;13.404;2022-08-19T00:45:39;21.40;99.90
18880;DHT22;9572;52.378;13.404;2022-08-19T00:48:08;21.40;99.90
18880;DHT22;9572;52.378;13.404;2022-08-19T00:50:36;21.30;99.90
18880;DHT22;9572;52.378;13.404;2022-08-19T00:53:03;21.30;99.90
18880;DHT22;9572;52.378;13.404;2022-08-19T00:55:32;21.20;99.90
18880;DHT22;9572;52.378;13.404;2022-08-19T00:58:06;21.20;99.90
18880;DHT22;9572;52.378;13.404;2022-08-19T01:00:34;21.20;99.90
18880;DHT22;9572;52.378;13.404;2022-08-19T01:03:02;21.20;99.90
18880;DHT22;9572;52.378;13.404;2022-08-19T01:05:31;21.20;99.90
18880;DHT22;9572;52.378;13.404;2022-08-19T01:08:00;21.20;99.90
18880;DHT22;9572;52.378;13.404;2022-08-19T01:10:31;21.10;99.90
18880;DHT22;9572;52.378;13.404;2022-08-19T01:13:01;21.10;99.90
18880;DHT22;9572;52.378;13.404;2022-08-19T01:15:32;21.00;99.90
18880;DHT22;9572;52.378;13.404;2022-08-19T01:18:03;21.10;99.90
18880;DHT22;9572;52.378;13.404;2022-08-19T01:20:32;21.10;99.90
18880;DHT22;9572;52.378;13.404;2022-08-19T01:23:02;21.10;99.90
18880;DHT22;9572;52.378;13.404;2022-08-19T01:25:33;21.10;99.90
18880;DHT22;9572;52.378;13.404;2022-08-19T01:28:01;21.10;99.90
18880;DHT22;9572;52.378;13.404;2022-08-19T01:30:31;21.00;99.90
18880;DHT22;9572;52.378;13.404;2022-08-19T01:32:59;21.00;99.90
18880;DHT22;9572;52.378;13.404;2022-08-19T01:35:28;21.00;99.90
18880;DHT22;9572;52.378;13.404;2022-08-19T01:38:00;21.00;99.90
18880;DHT22;9572;52.378;13.404;2022-08-19T01:40:31;21.00;99.90
18880;DHT22;9572;52.378;13.404;2022-08-19T01:42:58;20.90;99.90
18880;DHT22;9572;52.378;13.404;2022-08-19T01:45:28;20.90;99.90
18880;DHT22;9572;52.378;13.404;2022-08-19T01:47:55;20.90;99.90
18880;DHT22;9572;52.378;13.404;2022-08-19T01:50:22;21.00;99.90
18880;DHT22;9572;52.378;13.404;2022-08-19T01:52:49;20.90;99.90
18880;DHT22;9572;52.378;13.404;2022-08-19T01:55:21;20.90;99.90
18880;DHT22;9572;52.378;13.404;2022-08-19T01:57:54;21.00;99.90
18880;DHT22;9572;52.378;13.404;2022-08-19T02:00:24;21.00;99.90
18880;DHT22;9572;52.378;13.404;2022-08-19T02:02:51;20.90;99.90
18880;DHT22;9572;52.378;13.404;2022-08-19T02:05:19;20.90;99.90
18880;DHT22;9572;52.378;13.404;2022-08-19T02:07:47;20.90;99.90
18880;DHT22;9572;52.378;13.404;2022-08-19T02:10:17;20.90;99.90
18880;DHT22;9572;52.378;13.404;2022-08-19T02:12:44;21.00;99.90
18880;DHT22;9572;52.378;13.404;2022-08-19T02:15:13;20.90;99.90
18880;DHT22;9572;52.378;13.404;2022-08-19T02:17:40;20.90;99.90
18880;DHT22;9572;52.378;13.404;2022-08-19T02:20:08;21.00;99.90
18880;DHT22;9572;52.378;13.404;2022-08-19T02:22:35;20.90;99.90
18880;DHT22;9572;52.378;13.404;2022-08-19T02:25:03;20.90;99.90
18880;DHT22;9572;52.378;13.404;2022-08-19T02:27:31;20.90;99.90
18880;DHT22;9572;52.378;13.404;2022-08-19T02:29:59;20.70;99.90
18880;DHT22;9572;52.378;13.404;2022-08-19T02:32:27;20.70;99.90
18880;DHT22;9572;52.378;13.404;2022-08-19T02:34:55;20.80;99.90
18880;DHT22;9572;52.378;13.404;2022-08-19T02:37:22;20.70;99.90
18880;DHT22;9572;52.378;13.404;2022-08-19T02:40:07;20.70;99.90
18880;DHT22;9572;52.378;13.404;2022-08-19T02:42:34;20.70;99.90
18880;DHT22;9572;52.378;13.404;2022-08-19T02:45:02;20.70;99.90
18880;DHT22;9572;52.378;13.404;2022-08-19T02:47:30;20.70;99.90
18880;DHT22;9572;52.378;13.404;2022-08-19T02:49:57;20.60;99.90
18880;DHT22;9572;52.378;13.404;2022-08-19T02:52:24;20.60;99.90
18880;DHT22;9572;52.378;13.404;2022-08-19T02:54:52;20.60;99.90
18880;DHT22;9572;52.378;13.404;2022-08-19T02:57:23;20.50;99.90
18880;DHT22;9572;52.378;13.404;2022-08-19T02:59:50;20.50;99.90
18880;DHT22;9572;52.378;13.404;2022-08-19T03:02:17;20.60;99.90
18880;DHT22;9572;52.378;13.404;2022-08-19T03:04:45;20.60;99.90
18880;DHT22;9572;52.378;13.404;2022-08-19T03:07:13;20.60;99.90
18880;DHT22;9572;52.378;13.404;2022-08-19T03:09:40;20.60;99.90
18880;DHT22;9572;52.378;13.404;2022-08-19T03:12:07;20.60;99.90
18880;DHT22;9572;52.378;13.404;2022-08-19T03:14:35;20.60;99.90
18880;DHT22;9572;52.378;13.404;2022-08-19T03:17:03;20.60;99.90
18880;DHT22;9572;52.378;13.404;2022-08-19T03:19:31;20.70;99.90
18880;DHT22;9572;52.378;13.404;2022-08-19T03:21:59;20.70;99.90
18880;DHT22;9572;52.378;13.404;2022-08-19T03:24:26;20.60;99.90
18880;DHT22;9572;52.378;13.404;2022-08-19T03:26:54;20.60;99.90
18880;DHT22;9572;52.378;13.404;2022-08-19T03:29:23;20.60;99.90
18880;DHT22;9572;52.378;13.404;2022-08-19T03:31:50;20.60;99.90
18880;DHT22;9572;52.378;13.404;2022-08-19T03:34:19;20.60;99.90
18880;DHT22;9572;52.378;13.404;2022-08-19T03:36:49;20.60;99.90
18880;DHT22;9572;52.378;13.404;2022-08-19T03:39:17;20.60;99.90
18880;DHT22;9572;52.378;13.404;2022-08-19T03:41:46;20.60;99.90
18880;DHT22;9572;52.378;13.404;2022-08-19T03:44:16;20.60;99.90
18880;DHT22;9572;52.378;13.404;2022-08-19T03:46:45;20.60;99.90
18880;DHT22;9572;52.378;13.404;2022-08-19T03:49:13;20.50;99.90
18880;DHT22;9572;52.378;13.404;2022-08-19T03:51:41;20.60;99.90
18880;DHT22;9572;52.378;13.404;2022-08-19T03:54:10;20.50;99.90
18880;DHT22;9572;52.378;13.404;2022-08-19T03:56:41;20.60;99.90
18880;DHT22;9572;52.378;13.404;2022-08-19T03:59:10;20.50;99.90
18880;DHT22;9572;52.378;13.404;2022-08-19T04:01:39;20.50;99.90
18880;DHT22;9572;52.378;13.404;2022-08-19T04:04:06;20.50;99.90
18880;DHT22;9572;52.378;13.404;2022-08-19T04:06:35;20.50;99.90
18880;DHT22;9572;52.378;13.404;2022-08-19T04:09:05;20.50;99.90
18880;DHT22;9572;52.378;13.404;2022-08-19T04:11:35;20.50;99.90
18880;DHT22;9572;52.378;13.404;2022-08-19T04:14:07;20.50;99.90
18880;DHT22;9572;52.378;13.404;2022-08-19T04:16:35;20.50;99.90
18880;DHT22;9572;52.378;13.404;2022-08-19T04:19:04;20.60;99.90
18880;DHT22;9572;52.378;13.404;2022-08-19T04:21:31;20.60;99.90
18880;DHT22;9572;52.378;13.404;2022-08-19T04:23:58;20.50;99.90
18880;DHT22;9572;52.378;13.404;2022-08-19T04:26:27;20.50;99.90
18880;DHT22;9572;52.378;13.404;2022-08-19T04:28:57;20.60;99.90
18880;DHT22;9572;52.378;13.404;2022-08-19T04:31:30;20.50;99.90
18880;DHT22;9572;52.378;13.404;2022-08-19T04:34:00;20.60;99.90
18880;DHT22;9572;52.378;13.404;2022-08-19T04:36:29;20.60;99.90
18880;DHT22;9572;52.378;13.404;2022-08-19T04:38:59;20.60;99.90
18880;DHT22;9572;52.378;13.404;2022-08-19T04:41:26;20.60;99.90
18880;DHT22;9572;52.378;13.404;2022-08-19T04:44:11;20.70;99.90
18880;DHT22;9572;52.378;13.404;2022-08-19T04:46:40;20.80;99.90
18880;DHT22;9572;52.378;13.404;2022-08-19T04:49:07;20.70;99.90
18880;DHT22;9572;52.378;13.404;2022-08-19T04:51:34;20.70;99.90
18880;DHT22;9572;52.378;13.404;2022-08-19T04:54:03;20.70;99.90
18880;DHT22;9572;52.378;13.404;2022-08-19T04:56:30;20.80;99.90
18880;DHT22;9572;52.378;13.404;2022-08-19T04:58:57;20.80;99.90
18880;DHT22;9572;52.378;13.404;2022-08-19T05:01:29;20.90;99.90
18880;DHT22;9572;52.378;13.404;2022-08-19T05:03:59;21.00;99.90
18880;DHT22;9572;52.378;13.404;2022-08-19T05:06:27;21.00;99.90
18880;DHT22;9572;52.378;13.404;2022-08-19T05:08:58;21.00;99.90
18880;DHT22;9572;52.378;13.404;2022-08-19T05:11:28;21.00;99.90
18880;DHT22;9572;52.378;13.404;2022-08-19T05:13:56;21.10;99.90
18880;DHT22;9572;52.378;13.404;2022-08-19T05:16:24;21.10;99.90
18880;DHT22;9572;52.378;13.404;2022-08-19T05:18:52;21.20;99.90
18880;DHT22;9572;52.378;13.404;2022-08-19T05:21:40;21.20;99.90
18880;DHT22;9572;52.378;13.404;2022-08-19T05:24:25;21.30;99.90
18880;DHT22;9572;52.378;13.404;2022-08-19T05:26:54;21.30;99.90
18880;DHT22;9572;52.378;13.404;2022-08-19T05:29:24;21.30;99.90
18880;DHT22;9572;52.378;13.404;2022-08-19T05:31:52;21.40;99.90
18880;DHT22;9572;52.378;13.404;2022-08-19T05:34:21;21.40;99.90
18880;DHT22;9572;52.378;13.404;2022-08-19T05:36:52;21.40;99.90
18880;DHT22;9572;52.378;13.404;2022-08-19T05:39:24;21.30;99.90
18880;DHT22;9572;52.378;13.404;2022-08-19T05:41:53;21.30;99.90
18880;DHT22;9572;52.378;13.404;2022-08-19T05:44:23;21.30;99.90
18880;DHT22;9572;52.378;13.404;2022-08-19T05:46:51;21.40;99.90
18880;DHT22;9572;52.378;13.404;2022-08-19T05:49:21;21.40;99.90
18880;DHT22;9572;52.378;13.404;2022-08-19T05:51:49;21.40;99.90
18880;DHT22;9572;52.378;13.404;2022-08-19T05:54:18;21.50;99.90
18880;DHT22;9572;52.378;13.404;2022-08-19T05:56:45;21.60;99.90
18880;DHT22;9572;52.378;13.404;2022-08-19T05:59:14;21.60;99.90
18880;DHT22;9572;52.378;13.404;2022-08-19T06:01:44;21.50;99.90
18880;DHT22;9572;52.378;13.404;2022-08-19T06:04:12;21.50;99.90
18880;DHT22;9572;52.378;13.404;2022-08-19T06:06:40;21.50;99.90
18880;DHT22;9572;52.378;13.404;2022-08-19T06:09:08;21.50;99.90
18880;DHT22;9572;52.378;13.404;2022-08-19T06:11:39;21.50;99.90
18880;DHT22;9572;52.378;13.404;2022-08-19T06:14:10;21.50;99.90
18880;DHT22;9572;52.378;13.404;2022-08-19T06:16:38;21.50;99.90
18880;DHT22;9572;52.378;13.404;2022-08-19T06:19:12;21.60;99.90
18880;DHT22;9572;52.378;13.404;2022-08-19T06:21:43;21.50;99.90
18880;DHT22;9572;52.378;13.404;2022-08-19T06:24:12;21.50;99.90
18880;DHT22;9572;52.378;13.404;2022-08-19T06:26:46;21.50;99.90
18880;DHT22;9572;52.378;13.404;2022-08-19T06:29:15;21.60;99.90
18880;DHT22;9572;52.378;13.404;2022-08-19T06:31:44;21.80;99.90
18880;DHT22;9572;52.378;13.404;2022-08-19T06:34:11;22.00;99.90
18880;DHT22;9572;52.378;13.404;2022-08-19T06:36:41;22.00;99.90
18880;DHT22;9572;52.378;13.404;2022-08-19T06:39:10;22.10;99.90
18880;DHT22;9572;52.378;13.404;2022-08-19T06:41:40;22.10;99.90
18880;DHT22;9572;52.378;13.404;2022-08-19T06:44:09;22.20;99.90
18880;DHT22;9572;52.378;13.404;2022-08-19T06:46:36;22.20;99.90
18880;DHT22;9572;52.378;13.404;2022-08-19T06:49:04;22.20;99.90
18880;DHT22;9572;52.378;13.404;2022-08-19T06:51:34;22.30;99.90
18880;DHT22;9572;52.378;13.404;2022-08-19T06:54:02;22.40;99.90
18880;DHT22;9572;52.378;13.404;2022-08-19T06:56:30;22.40;99.90
18880;DHT22;9572;52.378;13.404;2022-08-19T06:58:59;22.50;99.90
18880;DHT22;9572;52.378;13.404;2022-08-19T07:01:28;22.50;99.90
18880;DHT22;9572;52.378;13.404;2022-08-19T07:03:55;22.60;99.90
18880;DHT22;9572;52.378;13.404;2022-08-19T07:06:22;22.60;99.90
18880;DHT22;9572;52.378;13.404;2022-08-19T07:08:49;22.70;99.90
18880;DHT22;9572;52.378;13.404;2022-08-19T07:11:18;22.80;99.90
18880;DHT22;9572;52.378;13.404;2022-08-19T07:13:46;22.80;99.90
18880;DHT22;9572;52.378;13.404;2022-08-19T07:16:16;22.80;99.90
18880;DHT22;9572;52.378;13.404;2022-08-19T07:18:46;22.80;99.90
18880;DHT22;9572;52.378;13.404;2022-08-19T07:21:16;22.80;99.90
18880;DHT22;9572;52.378;13.404;2022-08-19T07:23:43;22.80;99.90
18880;DHT22;9572;52.378;13.404;2022-08-19T07:26:13;22.80;99.90
18880;DHT22;9572;52.378;13.404;2022-08-19T07:28:41;22.80;99.90
18880;DHT22;9572;52.378;13.404;2022-08-19T07:31:10;23.00;99.90
18880;DHT22;9572;52.378;13.404;2022-08-19T07:33:38;23.10;99.90
18880;DHT22;9572;52.378;13.404;2022-08-19T07:36:08;23.20;99.90
18880;DHT22;9572;52.378;13.404;2022-08-19T07:38:37;23.10;99.90
18880;DHT22;9572;52.378;13.404;2022-08-19T07:41:05;23.20;99.90
18880;DHT22;9572;52.378;13.404;2022-08-19T07:43:32;23.30;99.90
18880;DHT22;9572;52.378;13.404;2022-08-19T07:45:59;23.40;99.90
18880;DHT22;9572;52.378;13.404;2022-08-19T07:48:27;23.50;99.90
18880;DHT22;9572;52.378;13.404;2022-08-19T07:50:56;23.50;99.90
18880;DHT22;9572;52.378;13.404;2022-08-19T07:53:28;23.40;99.90
18880;DHT22;9572;52.378;13.404;2022-08-19T07:55:55;23.40;99.90
18880;DHT22;9572;52.378;13.404;2022-08-19T07:58:30;23.50;99.90
18880;DHT22;9572;52.378;13.404;2022-08-19T08:00:58;23.60;99.90
18880;DHT22;9572;52.378;13.404;2022-08-19T08:03:26;23.70;99.90
18880;DHT22;9572;52.378;13.404;2022-08-19T08:06:07;23.70;99.90
18880;DHT22;9572;52.378;13.404;2022-08-19T08:08:52;23.50;99.90
18880;DHT22;9572;52.378;13.404;2022-08-19T08:11:33;23.50;99.90
18880;DHT22;9572;52.378;13.404;2022-08-19T08:14:01;23.40;99.90
18880;DHT22;9572;52.378;13.404;2022-08-19T08:16:28;23.40;99.90
18880;DHT22;9572;52.378;13.404;2022-08-19T08:18:56;23.40;99.90
18880;DHT22;9572;52.378;13.404;2022-08-19T08:21:23;23.40;99.90
18880;DHT22;9572;52.378;13.404;2022-08-19T08:23:51;23.50;99.90
18880;DHT22;9572;52.378;13.404;2022-08-19T08:26:18;23.60;99.90
18880;DHT22;9572;52.378;13.404;2022-08-19T08:28:45;23.60;99.90
18880;DHT22;9572;52.378;13.404;2022-08-19T08:31:13;23.60;99.90
18880;DHT22;9572;52.378;13.404;2022-08-19T08:33:41;23.70;99.90
18880;DHT22;9572;52.378;13.404;2022-08-19T08:36:09;23.70;99.90
18880;DHT22;9572;52.378;13.404;2022-08-19T08:38:36;23.70;99.90
18880;DHT22;9572;52.378;13.404;2022-08-19T08:41:09;23.70;99.90
18880;DHT22;9572;52.378;13.404;2022-08-19T08:43:46;23.80;99.90
18880;DHT22;9572;52.378;13.404;2022-08-19T08:46:17;23.80;99.90
18880;DHT22;9572;52.378;13.404;2022-08-19T08:48:50;23.80;99.90
18880;DHT22;9572;52.378;13.404;2022-08-19T08:51:22;23.80;99.90
18880;DHT22;9572;52.378;13.404;2022-08-19T08:53:52;23.80;99.90
18880;DHT22;9572;52.378;13.404;2022-08-19T08:56:20;23.80;99.90
18880;DHT22;9572;52.378;13.404;2022-08-19T08:58:54;23.80;99.90
18880;DHT22;9572;52.378;13.404;2022-08-19T09:01:24;23.90;99.90
18880;DHT22;9572;52.378;13.404;2022-08-19T09:03:51;23.90;99.90
18880;DHT22;9572;52.378;13.404;2022-08-19T09:06:24;23.90;99.90
18880;DHT22;9572;52.378;13.404;2022-08-19T09:08:59;23.90;99.90
18880;DHT22;9572;52.378;13.404;2022-08-19T09:11:41;23.90;99.90
18880;DHT22;9572;52.378;13.404;2022-08-19T09:14:18;24.00;99.90
18880;DHT22;9572;52.378;13.404;2022-08-19T09:16:46;23.90;99.90
18880;DHT22;9572;52.378;13.404;2022-08-19T09:19:15;23.90;99.90
18880;DHT22;9572;52.378;13.404;2022-08-19T09:21:43;23.90;99.90
18880;DHT22;9572;52.378;13.404;2022-08-19T09:24:11;23.90;99.90
18880;DHT22;9572;52.378;13.404;2022-08-19T09:26:39;24.00;99.90
18880;DHT22;9572;52.378;13.404;2022-08-19T09:29:06;24.00;99.90
18880;DHT22;9572;52.378;13.404;2022-08-19T09:31:34;24.20;99.90
18880;DHT22;9572;52.378;13.404;2022-08-19T09:34:01;24.30;99.90
18880;DHT22;9572;52.378;13.404;2022-08-19T09:36:30;24.50;99.90
18880;DHT22;9572;52.378;13.404;2022-08-19T09:38:59;24.60;99.90
18880;DHT22;9572;52.378;13.404;2022-08-19T09:41:26;24.60;99.90
18880;DHT22;9572;52.378;13.404;2022-08-19T09:43:56;24.60;99.90
18880;DHT22;9572;52.378;13.404;2022-08-19T09:46:25;24.60;99.90
18880;DHT22;9572;52.378;13.404;2022-08-19T09:48:53;24.50;99.90
18880;DHT22;9572;52.378;13.404;2022-08-19T09:51:24;24.40;99.90
18880;DHT22;9572;52.378;13.404;2022-08-19T09:53:52;24.40;99.90
18880;DHT22;9572;52.378;13.404;2022-08-19T09:56:21;24.30;99.90
18880;DHT22;9572;52.378;13.404;2022-08-19T09:58:49;24.30;99.90
18880;DHT22;9572;52.378;13.404;2022-08-19T10:01:19;24.40;99.90
18880;DHT22;9572;52.378;13.404;2022-08-19T10:03:48;24.40;99.90
18880;DHT22;9572;52.378;13.404;2022-08-19T10:06:16;24.30;99.90
18880;DHT22;9572;52.378;13.404;2022-08-19T10:08:44;24.40;99.90
18880;DHT22;9572;52.378;13.404;2022-08-19T10:11:11;24.40;99.90
18880;DHT22;9572;52.378;13.404;2022-08-19T10:13:39;24.30;99.90
18880;DHT22;9572;52.378;13.404;2022-08-19T10:16:09;24.20;99.90
18880;DHT22;9572;52.378;13.404;2022-08-19T10:18:38;24.30;99.90
18880;DHT22;9572;52.378;13.404;2022-08-19T10:21:11;24.30;99.90
18880;DHT22;9572;52.378;13.404;2022-08-19T10:23:40;24.30;99.90
18880;DHT22;9572;52.378;13.404;2022-08-19T10:26:12;24.30;99.90
18880;DHT22;9572;52.378;13.404;2022-08-19T10:28:40;24.20;99.90
18880;DHT22;9572;52.378;13.404;2022-08-19T10:31:08;24.00;99.90
18880;DHT22;9572;52.378;13.404;2022-08-19T10:33:39;23.90;99.90
18880;DHT22;9572;52.378;13.404;2022-08-19T10:36:08;23.70;99.90
18880;DHT22;9572;52.378;13.404;2022-08-19T10:38:36;23.70;99.90
18880;DHT22;9572;52.378;13.404;2022-08-19T10:41:07;23.60;99.90
18880;DHT22;9572;52.378;13.404;2022-08-19T10:43:35;23.60;99.90
18880;DHT22;9572;52.378;13.404;2022-08-19T10:46:04;23.60;99.90
18880;DHT22;9572;52.378;13.404;2022-08-19T10:48:31;23.60;99.90
18880;DHT22;9572;52.378;13.404;2022-08-19T10:51:00;23.60;99.90
18880;DHT22;9572;52.378;13.404;2022-08-19T10:53:40;23.50;99.90
18880;DHT22;9572;52.378;13.404;2022-08-19T10:56:07;23.50;99.90
18880;DHT22;9572;52.378;13.404;2022-08-19T10:58:52;23.50;99.90
18880;DHT22;9572;52.378;13.404;2022-08-19T11:01:18;23.60;99.90
18880;DHT22;9572;52.378;13.404;2022-08-19T11:03:45;23.60;99.90
18880;DHT22;9572;52.378;13.404;2022-08-19T11:06:14;23.60;99.90
18880;DHT22;9572;52.378;13.404;2022-08-19T11:08:40;23.70;99.90
18880;DHT22;9572;52.378;13.404;2022-08-19T11:11:10;23.60;99.90
18880;DHT22;9572;52.378;13.404;2022-08-19T11:13:40;23.60;99.90
18880;DHT22;9572;52.378;13.404;2022-08-19T11:16:10;23.60;99.90
18880;DHT22;9572;52.378;13.404;2022-08-19T11:18:41;23.50;99.90
18880;DHT22;9572;52.378;13.404;2022-08-19T11:21:11;23.50;99.90
18880;DHT22;9572;52.378;13.404;2022-08-19T11:23:40;23.50;99.90
18880;DHT22;9572;52.378;13.404;2022-08-19T11:26:07;23.50;99.90
18880;DHT22;9572;52.378;13.404;2022-08-19T11:28:35;23.40;99.90
18880;DHT22;9572;52.378;13.404;2022-08-19T11:31:02;23.40;99.90
18880;DHT22;9572;52.378;13.404;2022-08-19T11:33:29;23.40;99.90
18880;DHT22;9572;52.378;13.404;2022-08-19T11:35:57;23.40;99.90
18880;DHT22;9572;52.378;13.404;2022-08-19T11:38:25;23.30;99.90
18880;DHT22;9572;52.378;13.404;2022-08-19T11:40:57;23.30;99.90
18880;DHT22;9572;52.378;13.404;2022-08-19T11:43:25;23.40;99.90
18880;DHT22;9572;52.378;13.404;2022-08-19T11:45:52;23.40;99.90
18880;DHT22;9572;52.378;13.404;2022-08-19T11:48:20;23.40;99.90
18880;DHT22;9572;52.378;13.404;2022-08-19T11:50:48;23.30;99.90
18880;DHT22;9572;52.378;13.404;2022-08-19T11:53:15;23.30;99.90
18880;DHT22;9572;52.378;13.404;2022-08-19T11:55:44;23.30;99.90
18880;DHT22;9572;52.378;13.404;2022-08-19T11:58:13;23.40;99.90
18880;DHT22;9572;52.378;13.404;2022-08-19T12:00:41;23.40;99.90
18880;DHT22;9572;52.378;13.404;2022-08-19T12:03:11;23.50;99.90
18880;DHT22;9572;52.378;13.404;2022-08-19T12:05:38;23.50;99.90
18880;DHT22;9572;52.378;13.404;2022-08-19T12:08:06;23.60;99.90
18880;DHT22;9572;52.378;13.404;2022-08-19T12:10:34;23.70;99.90
18880;DHT22;9572;52.378;13.404;2022-08-19T12:13:01;23.70;99.90
18880;DHT22;9572;52.378;13.404;2022-08-19T12:15:29;23.80;99.90
18880;DHT22;9572;52.378;13.404;2022-08-19T12:17:57;23.80;99.90
18880;DHT22;9572;52.378;13.404;2022-08-19T12:20:24;23.80;99.90
18880;DHT22;9572;52.378;13.404;2022-08-19T12:22:52;23.80;99.90
18880;DHT22;9572;52.378;13.404;2022-08-19T12:25:19;23.90;99.90
18880;DHT22;9572;52.378;13.404;2022-08-19T12:27:46;24.00;99.90
18880;DHT22;9572;52.378;13.404;2022-08-19T12:30:13;24.00;99.90
18880;DHT22;9572;52.378;13.404;2022-08-19T12:32:42;24.00;99.90
18880;DHT22;9572;52.378;13.404;2022-08-19T12:35:09;23.90;99.90
18880;DHT22;9572;52.378;13.404;2022-08-19T12:37:37;23.90;99.90
18880;DHT22;9572;52.378;13.404;2022-08-19T12:40:05;24.00;99.90
18880;DHT22;9572;52.378;13.404;2022-08-19T12:42:32;24.10;99.90
18880;DHT22;9572;52.378;13.404;2022-08-19T12:45:00;24.20;99.90
18880;DHT22;9572;52.378;13.404;2022-08-19T12:47:27;24.30;99.90
18880;DHT22;9572;52.378;13.404;2022-08-19T12:49:55;24.20;99.90
18880;DHT22;9572;52.378;13.404;2022-08-19T12:52:24;24.20;99.90
18880;DHT22;9572;52.378;13.404;2022-08-19T12:54:53;24.30;99.90
18880;DHT22;9572;52.378;13.404;2022-08-19T12:57:21;24.40;99.90
18880;DHT22;9572;52.378;13.404;2022-08-19T12:59:52;24.40;99.90
18880;DHT22;9572;52.378;13.404;2022-08-19T13:02:20;24.30;99.90
18880;DHT22;9572;52.378;13.404;2022-08-19T13:04:47;24.20;99.90
18880;DHT22;9572;52.378;13.404;2022-08-19T13:07:16;24.10;99.90
18880;DHT22;9572;52.378;13.404;2022-08-19T13:09:43;24.10;99.90
18880;DHT22;9572;52.378;13.404;2022-08-19T13:12:10;24.10;99.90
18880;DHT22;9572;52.378;13.404;2022-08-19T13:14:38;24.00;99.90
18880;DHT22;9572;52.378;13.404;2022-08-19T13:17:06;23.90;99.90
18880;DHT22;9572;52.378;13.404;2022-08-19T13:19:36;23.90;99.90
18880;DHT22;9572;52.378;13.404;2022-08-19T13:22:02;23.90;99.90
18880;DHT22;9572;52.378;13.404;2022-08-19T13:24:31;24.00;99.90
18880;DHT22;9572;52.378;13.404;2022-08-19T13:26:59;24.10;99.90
18880;DHT22;9572;52.378;13.404;2022-08-19T13:29:26;24.10;99.90
18880;DHT22;9572;52.378;13.404;2022-08-19T13:32:10;24.20;99.90
18880;DHT22;9572;52.378;13.404;2022-08-19T13:34:54;24.30;99.90
18880;DHT22;9572;52.378;13.404;2022-08-19T13:37:21;24.20;99.90
18880;DHT22;9572;52.378;13.404;2022-08-19T13:40:10;24.30;99.90
18880;DHT22;9572;52.378;13.404;2022-08-19T13:42:39;24.40;99.90
18880;DHT22;9572;52.378;13.404;2022-08-19T13:45:07;24.40;99.90
18880;DHT22;9572;52.378;13.404;2022-08-19T13:47:34;24.40;99.90
18880;DHT22;9572;52.378;13.404;2022-08-19T13:50:09;24.20;99.90
18880;DHT22;9572;52.378;13.404;2022-08-19T13:52:36;24.10;99.90
18880;DHT22;9572;52.378;13.404;2022-08-19T13:55:04;24.10;99.90
18880;DHT22;9572;52.378;13.404;2022-08-19T13:57:33;23.90;99.90
18880;DHT22;9572;52.378;13.404;2022-08-19T14:00:00;23.90;99.90
18880;DHT22;9572;52.378;13.404;2022-08-19T14:02:28;23.90;99.90
18880;DHT22;9572;52.378;13.404;2022-08-19T14:04:55;23.90;99.90
18880;DHT22;9572;52.378;13.404;2022-08-19T14:07:22;23.90;99.90
18880;DHT22;9572;52.378;13.404;2022-08-19T14:09:49;24.10;99.90
18880;DHT22;9572;52.378;13.404;2022-08-19T14:12:19;24.20;99.90
18880;DHT22;9572;52.378;13.404;2022-08-19T14:14:47;24.40;99.90
18880;DHT22;9572;52.378;13.404;2022-08-19T14:17:14;24.50;99.90
18880;DHT22;9572;52.378;13.404;2022-08-19T14:19:41;24.70;99.90
18880;DHT22;9572;52.378;13.404;2022-08-19T14:22:08;24.80;99.90
18880;DHT22;9572;52.378;13.404;2022-08-19T14:24:37;25.00;99.90
18880;DHT22;9572;52.378;13.404;2022-08-19T14:27:05;25.00;99.90
18880;DHT22;9572;52.378;13.404;2022-08-19T14:29:32;25.10;99.90
18880;DHT22;9572;52.378;13.404;2022-08-19T14:32:01;25.10;99.90
18880;DHT22;9572;52.378;13.404;2022-08-19T14:34:28;25.10;99.90
18880;DHT22;9572;52.378;13.404;2022-08-19T14:36:57;25.20;99.90
18880;DHT22;9572;52.378;13.404;2022-08-19T14:39:24;25.10;99.90
18880;DHT22;9572;52.378;13.404;2022-08-19T14:41:51;25.00;99.90
18880;DHT22;9572;52.378;13.404;2022-08-19T14:44:18;24.90;99.90
18880;DHT22;9572;52.378;13.404;2022-08-19T14:46:45;24.90;99.90
18880;DHT22;9572;52.378;13.404;2022-08-19T14:49:13;24.90;99.90
18880;DHT22;9572;52.378;13.404;2022-08-19T14:51:40;24.90;99.90
18880;DHT22;9572;52.378;13.404;2022-08-19T14:54:07;24.90;99.90
18880;DHT22;9572;52.378;13.404;2022-08-19T14:56:34;24.90;99.90
18880;DHT22;9572;52.378;13.404;2022-08-19T14:59:01;24.90;99.90
18880;DHT22;9572;52.378;13.404;2022-08-19T15:01:28;25.00;99.90
18880;DHT22;9572;52.378;13.404;2022-08-19T15:03:55;24.90;99.90
18880;DHT22;9572;52.378;13.404;2022-08-19T15:06:25;24.80;99.90
18880;DHT22;9572;52.378;13.404;2022-08-19T15:08:52;24.60;99.90
18880;DHT22;9572;52.378;13.404;2022-08-19T15:11:21;24.40;99.90
18880;DHT22;9572;52.378;13.404;2022-08-19T15:13:49;24.30;99.90
18880;DHT22;9572;52.378;13.404;2022-08-19T15:16:17;24.20;99.90
18880;DHT22;9572;52.378;13.404;2022-08-19T15:18:45;24.20;99.90
18880;DHT22;9572;52.378;13.404;2022-08-19T15:21:14;24.10;99.90
18880;DHT22;9572;52.378;13.404;2022-08-19T15:23:44;24.00;99.90
18880;DHT22;9572;52.378;13.404;2022-08-19T15:26:12;23.90;99.90
18880;DHT22;9572;52.378;13.404;2022-08-19T15:28:39;23.80;99.90
18880;DHT22;9572;52.378;13.404;2022-08-19T15:31:06;23.80;99.90
18880;DHT22;9572;52.378;13.404;2022-08-19T15:33:34;23.70;99.90
18880;DHT22;9572;52.378;13.404;2022-08-19T15:36:02;23.70;99.90
18880;DHT22;9572;52.378;13.404;2022-08-19T15:38:31;23.60;99.90
18880;DHT22;9572;52.378;13.404;2022-08-19T15:41:01;23.50;99.90